createdAt,value
2019-05-01T00:01:24.369Z,81.70
2019-05-01T00:04:07.098Z,81.60
2019-05-01T00:06:42.497Z,81.60
2019-05-01T00:09:14.920Z,82.40
2019-05-01T00:11:45.689Z,83.00
2019-05-01T00:14:16.515Z,84.10
2019-05-01T00:16:47.321Z,85.00
2019-05-01T00:19:18.088Z,84.80
2019-05-01T00:21:48.884Z,85.10
2019-05-01T00:24:19.641Z,86.10
2019-05-01T00:26:50.446Z,86.60
2019-05-01T00:29:21.171Z,88.10
2019-05-01T00:31:51.898Z,87.40
2019-05-01T00:34:22.733Z,88.80
2019-05-01T00:36:53.507Z,87.70
2019-05-01T00:39:24.261Z,87.40
2019-05-01T00:41:55.023Z,88.10
2019-05-01T00:44:25.829Z,88.10
2019-05-01T00:46:56.566Z,88.10
2019-05-01T00:49:27.381Z,88.90
2019-05-01T00:51:58.118Z,89.30
2019-05-01T00:54:29.905Z,89.70
2019-05-01T00:57:07.422Z,91.30
2019-05-01T00:59:59.924Z,91.20
2019-05-01T01:02:37.363Z,91.70
2019-05-01T01:05:08.138Z,91.90
2019-05-01T01:07:38.904Z,92.10
2019-05-01T01:10:09.790Z,91.90
2019-05-01T01:12:40.527Z,92.10
2019-05-01T01:15:11.254Z,92.10
2019-05-01T01:17:42.010Z,91.10
2019-05-01T01:20:12.805Z,91.30
2019-05-01T01:22:43.592Z,91.60
2019-05-01T01:25:14.599Z,92.90
2019-05-01T01:27:45.344Z,92.50
2019-05-01T01:30:16.290Z,93.20
2019-05-01T01:32:47.057Z,94.10
2019-05-01T01:35:17.903Z,94.10
2019-05-01T01:37:48.640Z,94.40
2019-05-01T01:40:19.559Z,94.60
2019-05-01T01:42:52.102Z,95.00
2019-05-01T01:45:44.773Z,97.60
2019-05-01T01:48:16.812Z,96.60
2019-05-01T01:50:48.038Z,96.20
2019-05-01T01:53:22.013Z,96.30
2019-05-01T01:55:53.330Z,97.70
2019-05-01T01:58:25.130Z,97.60
2019-05-01T02:01:17.900Z,98.20
2019-05-01T02:03:52.864Z,98.60
2019-05-01T02:06:23.631Z,99.90
2019-05-01T02:08:56.527Z,99.90
2019-05-01T02:11:27.213Z,99.90
2019-05-01T02:13:58.453Z,99.90
2019-05-01T02:16:29.186Z,99.90
2019-05-01T02:18:59.952Z,99.90
2019-05-01T02:21:30.718Z,99.90
2019-05-01T02:24:01.495Z,99.90
2019-05-01T02:26:35.722Z,99.90
2019-05-01T02:29:15.541Z,99.90
2019-05-01T02:31:49.058Z,99.90
2019-05-01T02:34:20.889Z,99.90
2019-05-01T02:36:54.651Z,99.90
2019-05-01T02:39:26.918Z,99.90
2019-05-01T02:42:01.166Z,99.90
2019-05-01T02:44:40.261Z,99.90
2019-05-01T02:47:13.951Z,99.90
2019-05-01T02:49:52.558Z,99.90
2019-05-01T02:52:25.937Z,99.90
2019-05-01T02:54:59.762Z,99.90
2019-05-01T02:57:31.588Z,99.90
2019-05-01T03:00:02.901Z,99.90
2019-05-01T03:02:34.558Z,99.90
2019-05-01T03:05:06.228Z,99.90
2019-05-01T03:07:38.944Z,99.90
2019-05-01T03:10:10.179Z,99.90
2019-05-01T03:12:44.082Z,99.90
2019-05-01T03:15:16.565Z,99.90
2019-05-01T03:18:07.136Z,99.90
2019-05-01T03:20:59.135Z,99.90
2019-05-01T03:23:39.564Z,99.90
2019-05-01T03:26:10.363Z,99.90
2019-05-01T03:28:41.539Z,99.90
2019-05-01T03:31:12.770Z,99.90
2019-05-01T03:33:43.650Z,99.90
2019-05-01T03:36:15.076Z,99.90
2019-05-01T03:38:45.942Z,99.90
2019-05-01T03:41:16.929Z,99.90
2019-05-01T03:43:48.296Z,99.90
2019-05-01T03:46:19.632Z,99.90
2019-05-01T03:48:50.534Z,99.90
2019-05-01T03:51:21.478Z,99.90
2019-05-01T03:53:52.320Z,99.90
2019-05-01T03:56:23.276Z,99.90
2019-05-01T03:58:54.192Z,99.90
2019-05-01T04:01:44.814Z,99.90
2019-05-01T04:04:18.971Z,99.90
2019-05-01T04:06:49.748Z,99.90
2019-05-01T04:09:20.623Z,99.90
2019-05-01T04:11:51.431Z,99.90
2019-05-01T04:14:22.475Z,99.90
2019-05-01T04:16:59.654Z,99.90
2019-05-01T04:19:30.500Z,99.90
2019-05-01T04:22:10.489Z,99.90
2019-05-01T04:24:42.096Z,99.90
2019-05-01T04:27:18.693Z,99.90
2019-05-01T04:29:59.846Z,99.90
2019-05-01T04:32:50.113Z,99.90
2019-05-01T04:35:25.010Z,99.90
2019-05-01T04:37:58.468Z,99.90
2019-05-01T04:40:29.245Z,99.90
2019-05-01T04:42:59.949Z,99.90
2019-05-01T04:45:31.005Z,99.90
2019-05-01T04:48:02.005Z,99.90
2019-05-01T04:50:33.037Z,99.90
2019-05-01T04:53:04.004Z,99.90
2019-05-01T04:55:34.949Z,99.90
2019-05-01T04:58:06.155Z,99.90
2019-05-01T05:00:37.112Z,99.90
2019-05-01T05:03:11.969Z,99.90
2019-05-01T05:05:42.785Z,99.90
2019-05-01T05:08:13.591Z,99.90
2019-05-01T05:10:44.528Z,99.90
2019-05-01T05:13:26.736Z,99.90
2019-05-01T05:16:15.327Z,99.90
2019-05-01T05:18:46.353Z,99.90
2019-05-01T05:21:17.229Z,99.90
2019-05-01T05:23:48.627Z,99.90
2019-05-01T05:26:19.883Z,99.90
2019-05-01T05:28:51.048Z,99.90
2019-05-01T05:31:26.176Z,99.90
2019-05-01T05:33:59.282Z,99.90
2019-05-01T05:36:33.189Z,99.90
2019-05-01T05:39:18.693Z,99.90
2019-05-01T05:41:50.837Z,99.90
2019-05-01T05:44:21.602Z,99.40
2019-05-01T05:47:11.613Z,97.20
2019-05-01T05:49:42.619Z,95.20
2019-05-01T05:52:21.411Z,94.20
2019-05-01T05:55:12.738Z,93.40
2019-05-01T05:58:03.007Z,93.30
2019-05-01T06:00:57.111Z,92.70
2019-05-01T06:03:48.792Z,91.20
2019-05-01T06:06:31.121Z,90.80
2019-05-01T06:09:04.068Z,90.50
2019-05-01T06:11:54.892Z,89.30
2019-05-01T06:15:06.349Z,89.00
2019-05-01T06:17:43.983Z,88.30
2019-05-01T06:20:43.166Z,88.50
2019-05-01T06:23:28.287Z,88.20
2019-05-01T06:26:20.587Z,88.40
2019-05-01T06:28:55.986Z,88.20
2019-05-01T06:31:25.001Z,88.70
2019-05-01T06:33:56.046Z,88.10
2019-05-01T06:36:27.164Z,86.30
2019-05-01T06:38:58.240Z,83.30
2019-05-01T06:41:33.804Z,82.20
2019-05-01T06:44:23.898Z,82.60
2019-05-01T06:47:25.912Z,84.60
2019-05-01T06:50:10.651Z,84.90
2019-05-01T06:52:41.679Z,83.30
2019-05-01T06:55:12.526Z,80.10
2019-05-01T06:57:45.538Z,78.30
2019-05-01T07:00:17.910Z,74.20
2019-05-01T07:02:50.666Z,74.30
2019-05-01T07:05:22.511Z,74.10
2019-05-01T07:07:54.969Z,74.80
2019-05-01T07:10:31.667Z,70.40
2019-05-01T07:13:05.100Z,72.30
2019-05-01T07:15:34.458Z,73.70
2019-05-01T07:18:05.469Z,71.50
2019-05-01T07:20:53.579Z,72.70
2019-05-01T07:23:24.743Z,69.20
2019-05-01T07:25:55.677Z,71.60
2019-05-01T07:28:29.007Z,72.40
2019-05-01T07:31:10.735Z,72.70
2019-05-01T07:33:41.923Z,69.00
2019-05-01T07:36:15.209Z,71.40
2019-05-01T07:38:46.343Z,71.10
2019-05-01T07:41:17.152Z,70.40
2019-05-01T07:44:05.940Z,66.70
2019-05-01T07:46:48.925Z,69.40
2019-05-01T07:49:19.297Z,71.20
2019-05-01T07:51:51.042Z,71.40
2019-05-01T07:54:22.928Z,69.30
2019-05-01T07:56:54.034Z,68.30
2019-05-01T07:59:27.458Z,67.10
2019-05-01T08:02:00.209Z,64.60
2019-05-01T08:04:38.032Z,66.00
2019-05-01T08:07:03.416Z,65.00
2019-05-01T08:09:34.184Z,68.50
2019-05-01T08:12:05.337Z,65.90
2019-05-01T08:14:36.100Z,68.50
2019-05-01T08:17:06.926Z,64.40
2019-05-01T08:19:46.634Z,65.20
2019-05-01T08:22:20.975Z,64.60
2019-05-01T08:24:53.787Z,65.40
2019-05-01T08:27:34.537Z,64.80
2019-05-01T08:30:28.029Z,61.20
2019-05-01T08:33:17.750Z,63.30
2019-05-01T08:35:48.569Z,65.20
2019-05-01T08:38:19.382Z,63.90
2019-05-01T08:40:50.687Z,62.70
2019-05-01T08:43:22.585Z,61.00
2019-05-01T08:46:24.929Z,63.70
2019-05-01T08:49:01.637Z,60.30
2019-05-01T08:51:34.960Z,62.80
2019-05-01T08:54:04.962Z,61.60
2019-05-01T08:56:35.756Z,61.50
2019-05-01T08:59:06.542Z,59.60
2019-05-01T09:01:37.331Z,57.40
2019-05-01T09:04:13.074Z,57.40
2019-05-01T09:06:43.950Z,54.60
2019-05-01T09:09:13.009Z,55.80
2019-05-01T09:11:43.794Z,56.20
2019-05-01T09:14:14.601Z,51.10
2019-05-01T09:16:45.327Z,51.20
2019-05-01T09:19:16.153Z,51.90
2019-05-01T09:21:46.850Z,55.10
2019-05-01T09:24:17.647Z,55.40
2019-05-01T09:27:10.459Z,54.60
2019-05-01T09:29:51.309Z,54.30
2019-05-01T09:32:19.322Z,55.50
2019-05-01T09:34:50.397Z,53.90
2019-05-01T09:37:21.346Z,56.10
2019-05-01T09:39:52.261Z,53.70
2019-05-01T09:42:24.176Z,52.40
2019-05-01T09:44:55.526Z,50.90
2019-05-01T09:47:26.921Z,51.10
2019-05-01T09:49:57.755Z,47.70
2019-05-01T09:52:45.997Z,49.00
2019-05-01T09:55:24.946Z,49.80
2019-05-01T09:57:55.802Z,46.30
2019-05-01T10:00:31.131Z,47.40
2019-05-01T10:03:01.896Z,49.70
2019-05-01T10:05:32.984Z,46.90
2019-05-01T10:08:05.311Z,49.30
2019-05-01T10:10:37.118Z,49.70
2019-05-01T10:13:07.982Z,49.10
2019-05-01T10:15:38.788Z,48.70
2019-05-01T10:18:09.548Z,47.00
2019-05-01T10:20:40.331Z,47.10
2019-05-01T10:23:13.165Z,46.80
2019-05-01T10:25:49.489Z,47.40
2019-05-01T10:28:29.577Z,45.80
2019-05-01T10:31:19.294Z,48.00
2019-05-01T10:33:51.362Z,46.50
2019-05-01T10:36:42.053Z,45.70
2019-05-01T10:39:15.959Z,45.20
2019-05-01T10:41:46.229Z,44.30
2019-05-01T10:44:17.692Z,45.50
2019-05-01T10:46:48.452Z,47.40
2019-05-01T10:49:19.406Z,45.00
2019-05-01T10:51:50.331Z,44.80
2019-05-01T10:54:21.098Z,43.30
2019-05-01T10:56:51.917Z,47.60
2019-05-01T10:59:22.660Z,44.50
2019-05-01T11:01:58.548Z,47.10
2019-05-01T11:04:29.454Z,43.60
2019-05-01T11:07:00.251Z,45.50
2019-05-01T11:09:31.118Z,44.40
2019-05-01T11:12:01.912Z,42.40
2019-05-01T11:14:32.719Z,40.00
2019-05-01T11:17:03.635Z,42.00
2019-05-01T11:19:34.373Z,39.30
2019-05-01T11:22:05.208Z,42.50
2019-05-01T11:24:36.121Z,42.30
2019-05-01T11:27:06.912Z,41.90
2019-05-01T11:29:37.687Z,41.80
2019-05-01T11:32:30.229Z,42.70
2019-05-01T11:35:21.231Z,40.60
2019-05-01T11:38:07.364Z,42.10
2019-05-01T11:40:40.327Z,41.50
2019-05-01T11:43:11.105Z,40.80
2019-05-01T11:45:41.960Z,40.50
2019-05-01T11:48:12.748Z,42.40
2019-05-01T11:50:43.561Z,43.80
2019-05-01T11:53:14.348Z,44.10
2019-05-01T11:55:45.186Z,41.30
2019-05-01T11:58:15.921Z,41.80
2019-05-01T12:00:48.219Z,42.30
2019-05-01T12:03:18.996Z,37.30
2019-05-01T12:06:16.463Z,39.40
2019-05-01T12:08:41.233Z,37.20
2019-05-01T12:11:12.559Z,36.00
2019-05-01T12:13:44.172Z,37.60
2019-05-01T12:16:29.825Z,35.30
2019-05-01T12:19:00.522Z,37.90
2019-05-01T12:21:31.298Z,35.00
2019-05-01T12:24:02.052Z,35.70
2019-05-01T12:26:32.801Z,30.60
2019-05-01T12:29:03.622Z,30.80
2019-05-01T12:31:34.397Z,32.60
2019-05-01T12:34:05.189Z,31.90
2019-05-01T12:36:36.811Z,31.00
2019-05-01T12:39:10.984Z,30.70
2019-05-01T12:41:59.974Z,30.60
2019-05-01T12:44:30.701Z,27.90
2019-05-01T12:47:16.486Z,27.30
2019-05-01T12:49:48.770Z,26.50
2019-05-01T12:52:58.026Z,26.80
2019-05-01T12:55:53.445Z,24.60
2019-05-01T12:58:24.252Z,25.70
2019-05-01T13:00:55.867Z,23.40
2019-05-01T13:03:26.623Z,24.30
2019-05-01T13:05:57.778Z,26.70
2019-05-01T13:08:28.706Z,26.10
2019-05-01T13:11:01.009Z,27.20
2019-05-01T13:13:31.850Z,26.50
2019-05-01T13:16:02.626Z,30.10
2019-05-01T13:18:33.432Z,30.20
2019-05-01T13:21:04.178Z,31.60
2019-05-01T13:23:34.954Z,30.30
2019-05-01T13:26:30.522Z,29.30
2019-05-01T13:29:17.097Z,26.80
2019-05-01T13:31:54.306Z,25.80
2019-05-01T13:34:25.134Z,26.10
2019-05-01T13:37:02.861Z,25.40
2019-05-01T13:39:28.414Z,22.90
2019-05-01T13:42:00.145Z,23.90
2019-05-01T13:44:30.941Z,23.50
2019-05-01T13:47:01.759Z,23.60
2019-05-01T13:49:32.490Z,23.20
2019-05-01T13:52:03.266Z,24.70
2019-05-01T13:54:34.042Z,23.60
2019-05-01T13:57:05.519Z,26.10
2019-05-01T13:59:36.326Z,24.60
2019-05-01T14:02:07.075Z,24.20
2019-05-01T14:04:37.958Z,24.40
2019-05-01T14:07:16.188Z,23.90
2019-05-01T14:09:41.512Z,25.30
2019-05-01T14:12:12.257Z,25.30
2019-05-01T14:14:43.063Z,26.30
2019-05-01T14:17:13.900Z,25.60
2019-05-01T14:19:48.507Z,27.70
2019-05-01T14:22:44.119Z,26.20
2019-05-01T14:25:15.057Z,24.20
2019-05-01T14:27:45.962Z,24.60
2019-05-01T14:30:16.788Z,26.10
2019-05-01T14:32:47.534Z,27.10
2019-05-01T14:35:18.402Z,24.60
2019-05-01T14:37:49.166Z,27.60
2019-05-01T14:40:20.063Z,29.50
2019-05-01T14:42:50.859Z,28.80
2019-05-01T14:45:21.726Z,28.90
2019-05-01T14:47:52.503Z,28.30
2019-05-01T14:50:23.570Z,29.40
2019-05-01T14:52:54.335Z,30.70
2019-05-01T14:55:25.101Z,31.70
2019-05-01T14:57:55.897Z,29.70
2019-05-01T15:00:26.774Z,30.20
2019-05-01T15:02:57.570Z,30.30
2019-05-01T15:05:28.336Z,32.30
2019-05-01T15:07:59.136Z,31.60
2019-05-01T15:10:29.919Z,30.00
2019-05-01T15:13:02.887Z,30.00
2019-05-01T15:15:47.135Z,29.20
2019-05-01T15:18:27.064Z,29.70
2019-05-01T15:20:57.871Z,32.60
2019-05-01T15:23:28.686Z,32.70
2019-05-01T15:25:59.433Z,35.30
2019-05-01T15:28:30.249Z,35.10
2019-05-01T15:31:01.025Z,34.00
2019-05-01T15:33:31.833Z,35.30
2019-05-01T15:36:02.620Z,36.50
2019-05-01T15:38:33.424Z,36.90
2019-05-01T15:41:23.137Z,37.10
2019-05-01T15:44:12.877Z,35.50
2019-05-01T15:46:43.642Z,36.60
2019-05-01T15:49:14.479Z,37.40
2019-05-01T15:51:45.215Z,37.10
2019-05-01T15:54:15.992Z,37.20
2019-05-01T15:56:46.769Z,38.90
2019-05-01T15:59:17.574Z,36.40
2019-05-01T16:01:48.373Z,37.00
2019-05-01T16:04:19.158Z,37.80
2019-05-01T16:06:49.927Z,38.10
2019-05-01T16:09:20.753Z,37.90
2019-05-01T16:12:13.492Z,38.00
2019-05-01T16:14:47.008Z,38.70
2019-05-01T16:17:17.768Z,38.20
2019-05-01T16:19:48.580Z,37.40
2019-05-01T16:22:19.327Z,38.20
2019-05-01T16:24:50.143Z,38.80
2019-05-01T16:27:20.931Z,38.10
2019-05-01T16:29:51.727Z,39.30
2019-05-01T16:32:22.505Z,38.40
2019-05-01T16:34:53.322Z,38.20
2019-05-01T16:37:24.105Z,38.40
2019-05-01T16:40:31.990Z,39.60
2019-05-01T16:43:02.876Z,39.90
2019-05-01T16:45:33.693Z,40.90
2019-05-01T16:48:04.851Z,40.40
2019-05-01T16:50:35.616Z,41.60
2019-05-01T16:53:06.422Z,39.60
2019-05-01T16:55:37.210Z,40.20
2019-05-01T16:58:09.496Z,40.40
2019-05-01T17:00:58.376Z,40.10
2019-05-01T17:03:56.361Z,39.90
2019-05-01T17:06:37.151Z,41.60
2019-05-01T17:09:27.472Z,41.10
2019-05-01T17:11:58.504Z,41.60
2019-05-01T17:14:29.341Z,40.70
2019-05-01T17:17:00.167Z,39.90
2019-05-01T17:19:30.933Z,41.00
2019-05-01T17:22:01.780Z,40.40
2019-05-01T17:24:32.586Z,40.70
2019-05-01T17:27:03.420Z,41.70
2019-05-01T17:29:34.209Z,42.00
2019-05-01T17:32:05.515Z,42.00
2019-05-01T17:34:36.302Z,41.90
2019-05-01T17:37:07.202Z,41.60
2019-05-01T17:39:37.957Z,41.90
2019-05-01T17:42:08.785Z,41.50
2019-05-01T17:44:39.679Z,41.70
2019-05-01T17:47:10.875Z,42.20
2019-05-01T17:49:44.859Z,42.40
2019-05-01T17:52:14.133Z,42.60
2019-05-01T17:54:44.984Z,43.50
2019-05-01T17:57:15.782Z,43.80
2019-05-01T17:59:48.177Z,43.60
2019-05-01T18:02:32.026Z,44.30
2019-05-01T18:05:09.404Z,43.60
2019-05-01T18:07:40.270Z,44.20
2019-05-01T18:10:11.004Z,44.60
2019-05-01T18:12:41.828Z,45.40
2019-05-01T18:15:13.030Z,46.60
2019-05-01T18:17:44.015Z,46.70
2019-05-01T18:20:14.824Z,47.20
2019-05-01T18:23:13.552Z,47.40
2019-05-01T18:25:50.888Z,48.30
2019-05-01T18:28:33.263Z,49.00
2019-05-01T18:31:05.201Z,49.30
2019-05-01T18:33:36.026Z,50.80
2019-05-01T18:36:07.263Z,51.10
2019-05-01T18:38:56.192Z,51.70
2019-05-01T18:41:51.824Z,52.40
2019-05-01T18:44:22.613Z,52.50
2019-05-01T18:46:53.401Z,53.30
2019-05-01T18:49:24.186Z,54.30
2019-05-01T18:51:54.950Z,55.00
2019-05-01T18:54:25.776Z,55.50
2019-05-01T18:56:56.569Z,56.70
2019-05-01T18:59:27.370Z,58.80
2019-05-01T19:02:01.187Z,60.80
2019-05-01T19:04:30.636Z,61.40
2019-05-01T19:07:01.408Z,63.00
2019-05-01T19:09:32.517Z,62.60
2019-05-01T19:12:03.784Z,63.70
2019-05-01T19:14:34.590Z,63.90
2019-05-01T19:17:05.436Z,64.30
2019-05-01T19:19:36.229Z,65.30
2019-05-01T19:22:07.920Z,65.80
2019-05-01T19:24:40.127Z,66.00
2019-05-01T19:27:14.177Z,66.10
2019-05-01T19:29:43.988Z,66.30
2019-05-01T19:32:15.033Z,67.10
2019-05-01T19:34:45.948Z,67.50
2019-05-01T19:37:22.011Z,67.90
2019-05-01T19:39:53.866Z,68.80
2019-05-01T19:42:23.515Z,69.00
2019-05-01T19:44:56.448Z,70.30
2019-05-01T19:47:26.614Z,70.70
2019-05-01T19:50:06.844Z,70.80
2019-05-01T19:52:32.520Z,71.10
2019-05-01T19:55:06.323Z,72.30
2019-05-01T19:57:34.631Z,72.20
2019-05-01T20:00:06.646Z,73.20
2019-05-01T20:02:37.440Z,75.10
2019-05-01T20:05:11.149Z,76.00
2019-05-01T20:07:42.266Z,75.40
2019-05-01T20:10:13.451Z,76.20
2019-05-01T20:12:44.259Z,76.00
2019-05-01T20:15:15.054Z,75.90
2019-05-01T20:17:45.851Z,75.90
2019-05-01T20:20:16.636Z,76.60
2019-05-01T20:22:48.092Z,75.80
2019-05-01T20:25:21.209Z,76.10
2019-05-01T20:27:53.277Z,76.30
2019-05-01T20:30:24.203Z,76.60
2019-05-01T20:32:58.278Z,76.60
2019-05-01T20:35:28.560Z,77.90
2019-05-01T20:37:59.879Z,77.10
2019-05-01T20:40:30.620Z,77.00
2019-05-01T20:43:06.005Z,77.10
2019-05-01T20:45:34.376Z,77.10
2019-05-01T20:48:05.161Z,77.00
2019-05-01T20:50:35.958Z,76.50
2019-05-01T20:53:06.741Z,76.20
2019-05-01T20:55:37.528Z,75.80
2019-05-01T20:58:16.305Z,76.00
2019-05-01T21:00:53.562Z,76.00
2019-05-01T21:03:21.180Z,75.40
2019-05-01T21:05:57.640Z,75.10
2019-05-01T21:08:39.815Z,75.10
2019-05-01T21:11:14.340Z,74.60
2019-05-01T21:13:45.165Z,75.00
2019-05-01T21:16:16.079Z,74.80
2019-05-01T21:18:46.941Z,75.50
2019-05-01T21:21:17.718Z,75.60
2019-05-01T21:23:53.411Z,75.20
2019-05-01T21:26:20.933Z,75.40
2019-05-01T21:28:51.749Z,76.20
2019-05-01T21:31:24.044Z,75.90
2019-05-01T21:33:55.060Z,75.70
2019-05-01T21:36:25.898Z,75.60
2019-05-01T21:38:56.704Z,75.50
2019-05-01T21:41:27.459Z,75.50
2019-05-01T21:43:58.249Z,75.50
2019-05-01T21:46:28.972Z,75.50
2019-05-01T21:48:59.680Z,76.00
2019-05-01T21:51:30.406Z,76.40
2019-05-01T21:54:02.930Z,76.20
2019-05-01T21:56:36.902Z,77.10
2019-05-01T21:59:08.367Z,77.50
2019-05-01T22:01:38.322Z,77.90
2019-05-01T22:04:09.118Z,77.60
2019-05-01T22:06:39.775Z,78.10
2019-05-01T22:09:16.524Z,77.80
2019-05-01T22:11:47.449Z,77.90
2019-05-01T22:14:31.195Z,78.50
2019-05-01T22:17:00.346Z,79.20
2019-05-01T22:19:31.411Z,79.20
2019-05-01T22:22:11.065Z,79.60
2019-05-01T22:24:55.699Z,81.10
2019-05-01T22:27:33.442Z,82.10
2019-05-01T22:30:12.746Z,83.80
2019-05-01T22:32:47.315Z,82.90
2019-05-01T22:35:23.142Z,83.80
2019-05-01T22:37:53.907Z,83.60
2019-05-01T22:40:34.826Z,84.00
2019-05-01T22:43:05.483Z,84.90
2019-05-01T22:45:36.229Z,85.90
2019-05-01T22:48:06.946Z,87.20
2019-05-01T22:50:37.725Z,86.90
2019-05-01T22:53:13.056Z,87.30
2019-05-01T22:55:40.805Z,86.90
2019-05-01T22:58:11.551Z,87.50
2019-05-01T23:00:49.659Z,87.50
2019-05-01T23:03:31.809Z,87.30
2019-05-01T23:06:06.364Z,87.20
2019-05-01T23:08:34.892Z,87.40
2019-05-01T23:11:18.816Z,87.60
2019-05-01T23:13:38.045Z,88.70
2019-05-01T23:16:08.801Z,89.00
2019-05-01T23:18:39.560Z,89.90
2019-05-01T23:21:14.634Z,90.30
2019-05-01T23:23:42.911Z,90.90
2019-05-01T23:26:16.549Z,91.80
2019-05-01T23:28:45.963Z,91.60
2019-05-01T23:31:16.710Z,91.70
2019-05-01T23:33:50.649Z,92.20
2019-05-01T23:36:23.637Z,92.80
2019-05-01T23:38:52.180Z,93.00
2019-05-01T23:41:24.838Z,93.50
2019-05-01T23:43:58.206Z,93.30
2019-05-01T23:46:27.740Z,94.20
2019-05-01T23:48:58.427Z,94.10
2019-05-01T23:51:29.885Z,94.70
2019-05-01T23:54:00.770Z,95.50
2019-05-01T23:56:34.992Z,95.60
2019-05-01T23:59:03.841Z,95.80
